createdAt,value
2022-11-12T00:02:34.147Z,8.08
2022-11-12T00:05:21.879Z,7.91
2022-11-12T00:08:10.931Z,7.92
2022-11-12T00:10:58.554Z,8.02
2022-11-12T00:13:46.017Z,7.93
2022-11-12T00:16:33.066Z,7.90
2022-11-12T00:19:20.814Z,7.86
2022-11-12T00:22:09.529Z,7.83
2022-11-12T00:24:56.650Z,7.78
2022-11-12T00:27:44.663Z,7.89
2022-11-12T00:30:32.930Z,7.83
2022-11-12T00:33:20.744Z,7.86
2022-11-12T00:36:10.782Z,7.73
2022-11-12T00:38:58.071Z,7.72
2022-11-12T00:41:45.428Z,7.66
2022-11-12T00:44:32.771Z,7.71
2022-11-12T00:47:20.263Z,7.69
2022-11-12T00:50:10.447Z,7.66
2022-11-12T00:52:57.713Z,7.65
2022-11-12T00:55:45.417Z,7.59
2022-11-12T00:58:34.289Z,7.53
2022-11-12T01:01:22.656Z,7.58
2022-11-12T01:04:11.099Z,7.40
2022-11-12T01:06:58.512Z,7.42
2022-11-12T01:09:46.288Z,7.40
2022-11-12T01:12:34.033Z,7.35
2022-11-12T01:15:21.523Z,7.41
2022-11-12T01:18:10.934Z,7.44
2022-11-12T01:21:06.342Z,7.55
2022-11-12T01:23:54.133Z,7.43
2022-11-12T01:26:41.823Z,7.38
2022-11-12T01:29:29.154Z,7.44
2022-11-12T01:32:16.236Z,7.44
2022-11-12T01:35:04.481Z,7.39
2022-11-12T01:37:52.098Z,7.30
2022-11-12T01:40:40.033Z,7.29
2022-11-12T01:43:27.591Z,7.29
2022-11-12T01:46:20.547Z,7.25
2022-11-12T01:49:10.964Z,7.18
2022-11-12T01:52:01.537Z,7.13
2022-11-12T01:54:52.666Z,7.30
2022-11-12T01:57:43.345Z,7.31
2022-11-12T02:00:30.742Z,7.12
2022-11-12T02:03:23.934Z,7.16
2022-11-12T02:06:14.724Z,7.06
2022-11-12T02:09:02.182Z,7.14
2022-11-12T02:11:49.665Z,7.11
2022-11-12T02:14:37.825Z,7.11
2022-11-12T02:17:25.581Z,7.10
2022-11-12T02:20:15.528Z,7.12
2022-11-12T02:23:03.240Z,6.94
2022-11-12T02:25:51.149Z,6.96
2022-11-12T02:28:38.799Z,7.03
2022-11-12T02:31:26.371Z,7.03
2022-11-12T02:34:13.962Z,7.10
2022-11-12T02:37:01.452Z,7.14
2022-11-12T02:39:48.757Z,7.11
2022-11-12T02:42:36.203Z,7.08
2022-11-12T02:45:23.872Z,7.08
2022-11-12T02:48:24.853Z,7.07
2022-11-12T02:54:35.587Z,6.96
2022-11-12T02:57:23.676Z,6.85
2022-11-12T03:00:14.135Z,7.08
2022-11-12T03:03:01.587Z,7.03
2022-11-12T03:05:57.747Z,6.95
2022-11-12T03:08:45.207Z,6.95
2022-11-12T03:11:32.945Z,6.91
2022-11-12T03:14:20.096Z,6.91
2022-11-12T03:17:07.951Z,6.86
2022-11-12T03:19:55.162Z,6.86
2022-11-12T03:22:41.513Z,6.72
2022-11-12T03:25:29.738Z,6.86
2022-11-12T03:28:17.887Z,6.79
2022-11-12T03:31:05.184Z,6.90
2022-11-12T03:33:52.950Z,6.84
2022-11-12T03:36:40.617Z,6.79
2022-11-12T03:39:28.197Z,6.70
2022-11-12T03:42:15.515Z,6.72
2022-11-12T03:45:02.846Z,6.62
2022-11-12T03:47:55.944Z,6.76
2022-11-12T03:50:43.730Z,6.69
2022-11-12T03:53:30.774Z,6.76
2022-11-12T03:56:17.978Z,6.60
2022-11-12T03:59:06.088Z,6.73
2022-11-12T04:01:53.464Z,6.58
2022-11-12T04:04:58.703Z,6.50
2022-11-12T04:08:04.064Z,6.60
2022-11-12T04:10:52.008Z,6.55
2022-11-12T04:13:41.946Z,6.60
2022-11-12T04:16:47.220Z,6.60
2022-11-12T04:19:52.597Z,6.60
2022-11-12T04:22:39.928Z,6.64
2022-11-12T04:25:44.912Z,6.68
2022-11-12T04:28:32.355Z,6.64
2022-11-12T04:31:20.182Z,6.50
2022-11-12T04:34:27.402Z,6.65
2022-11-12T04:37:14.951Z,6.69
2022-11-12T04:40:03.698Z,6.70
2022-11-12T04:43:08.951Z,6.58
2022-11-12T04:45:57.454Z,6.67
2022-11-12T04:48:44.882Z,6.58
2022-11-12T04:51:49.789Z,6.58
2022-11-12T04:54:37.350Z,6.50
2022-11-12T04:57:24.824Z,6.52
2022-11-12T05:00:14.832Z,6.45
2022-11-12T05:03:02.538Z,6.40
2022-11-12T05:05:49.800Z,6.31
2022-11-12T05:08:37.733Z,6.34
2022-11-12T05:11:25.219Z,6.32
2022-11-12T05:14:13.140Z,6.31
2022-11-12T05:17:00.556Z,6.21
2022-11-12T05:19:47.933Z,6.23
2022-11-12T05:22:45.574Z,6.16
2022-11-12T05:25:24.405Z,6.24
2022-11-12T05:28:11.678Z,6.26
2022-11-12T05:30:59.240Z,6.19
2022-11-12T05:33:46.597Z,6.28
2022-11-12T05:36:34.259Z,6.28
2022-11-12T05:39:21.976Z,6.34
2022-11-12T05:42:13.547Z,6.26
2022-11-12T05:45:00.659Z,6.22
2022-11-12T05:47:49.234Z,6.13
2022-11-12T05:50:45.438Z,6.23
2022-11-12T05:53:25.873Z,6.21
2022-11-12T05:56:13.538Z,6.24
2022-11-12T05:59:01.912Z,6.07
2022-11-12T06:01:49.856Z,6.28
2022-11-12T06:04:37.014Z,6.28
2022-11-12T06:07:24.845Z,6.21
2022-11-12T06:10:20.183Z,6.05
2022-11-12T06:13:03.351Z,6.05
2022-11-12T06:15:51.911Z,6.15
2022-11-12T06:18:39.647Z,6.02
2022-11-12T06:21:27.959Z,5.97
2022-11-12T06:24:16.104Z,6.09
2022-11-12T06:27:03.805Z,6.04
2022-11-12T06:29:51.488Z,5.98
2022-11-12T06:32:38.923Z,5.80
2022-11-12T06:35:26.321Z,5.97
2022-11-12T06:38:13.680Z,6.05
2022-11-12T06:41:01.943Z,6.05
2022-11-12T06:43:49.760Z,5.99
2022-11-12T06:46:37.365Z,5.99
2022-11-12T06:49:25.335Z,5.92
2022-11-12T06:52:16.505Z,5.86
2022-11-12T06:55:02.754Z,5.93
2022-11-12T06:57:54.754Z,5.88
2022-11-12T07:00:42.305Z,5.90
2022-11-12T07:03:29.793Z,5.76
2022-11-12T07:06:20.079Z,5.92
2022-11-12T07:09:08.056Z,5.88
2022-11-12T07:11:55.607Z,5.94
2022-11-12T07:14:42.918Z,5.97
2022-11-12T07:17:31.439Z,6.05
2022-11-12T07:20:19.021Z,6.06
2022-11-12T07:23:06.644Z,6.08
2022-11-12T07:25:59.855Z,6.16
2022-11-12T07:28:48.512Z,6.18
2022-11-12T07:31:36.220Z,6.22
2022-11-12T07:34:24.154Z,6.17
2022-11-12T07:37:11.787Z,6.26
2022-11-12T07:40:00.076Z,6.34
2022-11-12T07:42:47.729Z,6.36
2022-11-12T07:45:35.574Z,6.50
2022-11-12T07:48:22.844Z,6.46
2022-11-12T07:51:15.659Z,6.67
2022-11-12T07:54:03.037Z,6.52
2022-11-12T07:56:50.186Z,6.74
2022-11-12T07:59:41.798Z,6.86
2022-11-12T08:02:26.493Z,6.73
2022-11-12T08:05:17.680Z,6.81
2022-11-12T08:08:03.468Z,7.04
2022-11-12T08:10:59.054Z,7.14
2022-11-12T08:13:46.699Z,7.20
2022-11-12T08:16:34.634Z,7.26
2022-11-12T08:19:21.917Z,7.37
2022-11-12T08:22:11.342Z,7.19
2022-11-12T08:24:58.919Z,7.52
2022-11-12T08:27:46.537Z,7.59
2022-11-12T08:30:34.522Z,7.57
2022-11-12T08:33:22.118Z,7.95
2022-11-12T08:36:13.725Z,8.00
2022-11-12T08:39:01.083Z,8.16
2022-11-12T08:41:48.498Z,8.21
2022-11-12T08:44:35.860Z,8.43
2022-11-12T08:47:23.601Z,8.68
2022-11-12T08:50:12.363Z,8.75
2022-11-12T08:53:08.026Z,8.77
2022-11-12T08:55:56.600Z,8.98
2022-11-12T08:58:44.060Z,9.29
2022-11-12T09:01:32.406Z,9.42
2022-11-12T09:04:19.566Z,9.53
2022-11-12T09:07:09.710Z,9.64
2022-11-12T09:09:56.725Z,9.77
2022-11-12T09:12:44.282Z,9.95
2022-11-12T09:15:39.916Z,10.21
2022-11-12T09:18:21.254Z,10.51
2022-11-12T09:21:09.299Z,10.69
2022-11-12T09:23:56.581Z,10.99
2022-11-12T09:26:43.941Z,11.01
2022-11-12T09:29:31.640Z,11.09
2022-11-12T09:32:19.055Z,11.24
2022-11-12T09:35:08.366Z,11.17
2022-11-12T09:37:55.779Z,11.14
2022-11-12T09:40:48.746Z,11.43
2022-11-12T09:43:42.474Z,11.71
2022-11-12T09:46:47.914Z,11.71
2022-11-12T09:49:41.327Z,11.98
2022-11-12T09:52:30.615Z,11.97
2022-11-12T09:55:20.871Z,12.10
2022-11-12T09:58:16.651Z,12.34
2022-11-12T10:01:10.074Z,12.46
2022-11-12T10:04:11.558Z,12.32
2022-11-12T10:07:18.668Z,12.52
2022-11-12T10:10:18.667Z,12.52
2022-11-12T10:13:25.592Z,12.55
2022-11-12T10:16:42.383Z,12.60
2022-11-12T10:19:41.858Z,12.67
2022-11-12T10:22:43.742Z,12.97
2022-11-12T10:25:33.159Z,13.01
2022-11-12T10:28:39.175Z,13.40
2022-11-12T10:31:26.977Z,13.26
2022-11-12T10:34:22.491Z,13.54
2022-11-12T10:37:21.127Z,13.68
2022-11-12T10:40:40.394Z,13.93
2022-11-12T10:43:27.770Z,13.97
2022-11-12T10:46:21.217Z,14.21
2022-11-12T10:49:17.402Z,14.21
2022-11-12T10:52:07.927Z,14.30
2022-11-12T10:55:19.330Z,14.39
2022-11-12T10:58:22.624Z,14.54
2022-11-12T11:01:18.501Z,14.74
2022-11-12T11:04:11.018Z,14.67
2022-11-12T11:07:24.783Z,15.14
2022-11-12T11:10:17.256Z,15.28
2022-11-12T11:13:13.300Z,15.46
2022-11-12T11:16:06.026Z,15.53
2022-11-12T11:19:02.142Z,15.80
2022-11-12T11:22:00.487Z,15.68
2022-11-12T11:25:05.776Z,15.86
2022-11-12T11:28:02.107Z,15.97
2022-11-12T11:31:07.287Z,16.08
2022-11-12T11:34:18.208Z,15.97
2022-11-12T11:37:08.909Z,16.28
2022-11-12T11:40:07.815Z,16.18
2022-11-12T11:43:07.117Z,16.37
2022-11-12T11:46:05.909Z,16.58
2022-11-12T11:49:24.297Z,16.40
2022-11-12T11:52:32.943Z,16.59
2022-11-12T11:55:42.719Z,17.08
2022-11-12T11:58:59.687Z,17.08
2022-11-12T12:02:02.034Z,17.17
2022-11-12T12:04:53.006Z,17.24
2022-11-12T12:07:52.427Z,17.19
2022-11-12T12:13:43.110Z,17.30
2022-11-12T12:16:51.572Z,17.37
2022-11-12T12:19:51.020Z,17.39
2022-11-12T12:22:41.222Z,17.54
2022-11-12T12:25:34.467Z,17.57
2022-11-12T12:28:25.337Z,17.87
2022-11-12T12:31:16.206Z,17.64
2022-11-12T12:34:23.991Z,17.35
2022-11-12T12:37:22.674Z,17.10
2022-11-12T12:40:31.750Z,17.28
2022-11-12T12:43:24.894Z,17.35
2022-11-12T12:46:15.084Z,17.24
2022-11-12T12:49:05.425Z,17.46
2022-11-12T12:51:55.920Z,17.42
2022-11-12T12:54:54.519Z,17.49
2022-11-12T12:57:42.252Z,17.62
2022-11-12T13:00:35.725Z,17.56
2022-11-12T13:03:43.592Z,17.50
2022-11-12T13:06:48.867Z,17.60
2022-11-12T13:09:36.270Z,17.70
2022-11-12T13:12:27.156Z,17.47
2022-11-12T13:15:16.659Z,17.62
2022-11-12T13:18:06.753Z,17.55
2022-11-12T13:21:15.508Z,17.56
2022-11-12T13:24:11.323Z,17.79
2022-11-12T13:27:00.428Z,17.70
2022-11-12T13:29:49.035Z,18.19
2022-11-12T13:32:44.738Z,18.13
2022-11-12T13:35:37.209Z,17.99
2022-11-12T13:38:24.980Z,17.75
2022-11-12T13:41:22.724Z,17.77
2022-11-12T13:44:14.169Z,17.83
2022-11-12T13:47:01.888Z,18.02
2022-11-12T13:49:49.932Z,17.96
2022-11-12T13:52:40.097Z,18.03
2022-11-12T13:55:27.945Z,17.84
2022-11-12T13:58:33.063Z,17.75
2022-11-12T14:01:23.305Z,17.78
2022-11-12T14:04:23.913Z,17.79
2022-11-12T14:07:32.007Z,17.45
2022-11-12T14:10:36.942Z,17.78
2022-11-12T14:13:46.487Z,17.71
2022-11-12T14:16:51.706Z,17.50
2022-11-12T14:20:03.471Z,17.68
2022-11-12T14:22:51.202Z,17.12
2022-11-12T14:25:50.466Z,17.12
2022-11-12T14:28:39.688Z,17.25
2022-11-12T14:31:27.285Z,17.31
2022-11-12T14:34:22.280Z,17.43
2022-11-12T14:37:12.897Z,17.31
2022-11-12T14:40:00.247Z,17.37
2022-11-12T14:42:48.248Z,17.23
2022-11-12T14:45:35.797Z,17.23
2022-11-12T14:48:23.312Z,17.15
2022-11-12T14:51:14.004Z,17.62
2022-11-12T14:54:10.287Z,18.28
2022-11-12T14:56:59.465Z,17.80
2022-11-12T14:59:46.988Z,17.35
2022-11-12T15:02:53.443Z,16.99
2022-11-12T15:05:24.614Z,16.69
2022-11-12T15:08:12.835Z,16.35
2022-11-12T15:11:24.142Z,16.17
2022-11-12T15:14:14.994Z,15.97
2022-11-12T15:17:04.344Z,15.91
2022-11-12T15:19:51.475Z,15.82
2022-11-12T15:22:39.499Z,15.61
2022-11-12T15:25:30.552Z,15.73
2022-11-12T15:28:25.592Z,15.48
2022-11-12T15:31:21.793Z,15.36
2022-11-12T15:34:30.446Z,15.28
2022-11-12T15:37:25.325Z,15.17
2022-11-12T15:40:22.567Z,15.01
2022-11-12T15:43:16.150Z,15.01
2022-11-12T15:46:03.963Z,14.86
2022-11-12T15:48:55.743Z,14.78
2022-11-12T15:51:40.442Z,14.63
2022-11-12T15:54:27.651Z,14.53
2022-11-12T15:57:21.437Z,14.45
2022-11-12T16:00:17.203Z,14.30
2022-11-12T16:03:21.587Z,14.10
2022-11-12T16:06:13.948Z,14.10
2022-11-12T16:09:01.729Z,13.98
2022-11-12T16:11:51.317Z,13.98
2022-11-12T16:14:38.818Z,13.81
2022-11-12T16:17:26.482Z,13.55
2022-11-12T16:20:17.680Z,13.62
2022-11-12T16:23:05.204Z,13.67
2022-11-12T16:25:52.796Z,13.63
2022-11-12T16:28:40.601Z,13.54
2022-11-12T16:31:28.366Z,13.46
2022-11-12T16:34:15.941Z,13.35
2022-11-12T16:37:03.673Z,13.20
2022-11-12T16:39:51.111Z,13.20
2022-11-12T16:42:40.245Z,13.31
2022-11-12T16:45:30.649Z,13.21
2022-11-12T16:48:23.141Z,13.29
2022-11-12T16:51:20.594Z,13.10
2022-11-12T16:54:07.226Z,13.01
2022-11-12T16:56:54.559Z,12.90
2022-11-12T16:59:41.940Z,12.80
2022-11-12T17:02:29.615Z,12.74
2022-11-12T17:05:20.607Z,12.74
2022-11-12T17:08:10.964Z,12.70
2022-11-12T17:10:58.853Z,12.54
2022-11-12T17:13:46.753Z,12.54
2022-11-12T17:16:34.222Z,12.62
2022-11-12T17:19:21.657Z,12.43
2022-11-12T17:22:11.267Z,12.37
2022-11-12T17:24:58.708Z,12.26
2022-11-12T17:27:46.104Z,12.31
2022-11-12T17:30:33.890Z,12.28
2022-11-12T17:33:21.387Z,12.28
2022-11-12T17:36:14.228Z,12.19
2022-11-12T17:39:01.843Z,12.22
2022-11-12T17:41:50.116Z,12.07
2022-11-12T17:44:37.898Z,11.97
2022-11-12T17:47:25.748Z,11.85
2022-11-12T17:50:14.088Z,11.72
2022-11-12T17:53:01.219Z,11.70
2022-11-12T17:55:48.762Z,11.72
2022-11-12T17:58:36.224Z,11.74
2022-11-12T18:01:26.347Z,11.56
2022-11-12T18:04:13.774Z,11.31
2022-11-12T18:07:01.259Z,11.20
2022-11-12T18:09:48.723Z,11.20
2022-11-12T18:12:36.645Z,11.16
2022-11-12T18:15:24.298Z,10.87
2022-11-12T18:18:11.381Z,10.87
2022-11-12T18:20:59.153Z,11.00
2022-11-12T18:23:46.669Z,11.00
2022-11-12T18:26:34.465Z,10.95
2022-11-12T18:29:21.849Z,10.98
2022-11-12T18:32:11.071Z,11.02
2022-11-12T18:34:58.600Z,10.72
2022-11-12T18:37:46.051Z,10.53
2022-11-12T18:40:33.901Z,10.77
2022-11-12T18:43:21.254Z,10.85
2022-11-12T18:46:12.090Z,10.53
2022-11-12T18:48:59.612Z,10.43
2022-11-12T18:51:47.413Z,10.39
2022-11-12T18:54:34.996Z,10.39
2022-11-12T18:57:22.646Z,10.24
2022-11-12T19:00:12.282Z,10.27
2022-11-12T19:02:59.969Z,10.53
2022-11-12T19:05:48.113Z,10.37
2022-11-12T19:08:36.244Z,10.51
2022-11-12T19:11:23.417Z,10.35
2022-11-12T19:14:12.069Z,10.21
2022-11-12T19:16:59.862Z,10.22
2022-11-12T19:19:47.604Z,10.11
2022-11-12T19:22:34.984Z,10.19
2022-11-12T19:25:22.717Z,10.10
2022-11-12T19:28:11.494Z,10.07
2022-11-12T19:30:59.109Z,10.30
2022-11-12T19:33:47.553Z,10.09
2022-11-12T19:36:35.065Z,10.16
2022-11-12T19:39:22.720Z,10.07
2022-11-12T19:42:11.488Z,10.13
2022-11-12T19:44:59.037Z,10.09
2022-11-12T19:47:47.432Z,10.13
2022-11-12T19:50:36.587Z,10.06
2022-11-12T19:53:23.992Z,10.09
2022-11-12T19:56:14.131Z,9.88
2022-11-12T19:59:02.091Z,9.84
2022-11-12T20:01:49.508Z,9.95
2022-11-12T20:04:37.211Z,9.73
2022-11-12T20:07:25.061Z,9.80
2022-11-12T20:10:14.327Z,9.93
2022-11-12T20:13:03.217Z,9.83
2022-11-12T20:15:50.902Z,9.65
2022-11-12T20:18:38.316Z,9.49
2022-11-12T20:21:26.783Z,9.42
2022-11-12T20:24:14.329Z,9.36
2022-11-12T20:27:01.950Z,9.36
2022-11-12T20:29:49.558Z,9.21
2022-11-12T20:32:37.002Z,9.32
2022-11-12T20:35:24.773Z,9.28
2022-11-12T20:38:12.009Z,9.43
2022-11-12T20:41:02.647Z,9.27
2022-11-12T20:43:55.612Z,9.24
2022-11-12T20:46:43.057Z,9.40
2022-11-12T20:49:30.675Z,9.40
2022-11-12T20:52:18.563Z,9.12
2022-11-12T20:55:07.876Z,9.12
2022-11-12T20:57:55.159Z,9.06
2022-11-12T21:00:42.934Z,9.10
2022-11-12T21:03:30.407Z,9.09
2022-11-12T21:06:21.265Z,9.31
2022-11-12T21:09:08.541Z,9.08
2022-11-12T21:11:55.900Z,9.29
2022-11-12T21:14:49.040Z,9.22
2022-11-12T21:17:32.503Z,8.97
2022-11-12T21:20:19.939Z,9.02
2022-11-12T21:23:07.331Z,8.94
2022-11-12T21:25:55.028Z,8.94
2022-11-12T21:28:42.590Z,8.94
2022-11-12T21:31:30.696Z,9.05
2022-11-12T21:34:18.062Z,9.05
2022-11-12T21:37:05.855Z,9.13
2022-11-12T21:39:53.213Z,8.89
2022-11-12T21:42:46.917Z,9.08
2022-11-12T21:45:34.599Z,8.99
2022-11-12T21:48:22.133Z,9.11
2022-11-12T21:51:13.144Z,9.16
2022-11-12T21:54:04.106Z,9.07
2022-11-12T21:56:51.623Z,8.97
2022-11-12T21:59:39.074Z,8.77
2022-11-12T22:02:26.567Z,8.80
2022-11-12T22:05:15.090Z,8.98
2022-11-12T22:08:02.512Z,9.11
2022-11-12T22:10:49.873Z,9.24
2022-11-12T22:13:38.641Z,9.00
2022-11-12T22:16:29.451Z,9.00
2022-11-12T22:19:16.896Z,9.03
2022-11-12T22:22:06.399Z,9.01
2022-11-12T22:24:53.921Z,9.01
2022-11-12T22:27:41.140Z,9.11
2022-11-12T22:30:29.210Z,9.10
2022-11-12T22:33:16.975Z,9.09
2022-11-12T22:36:09.156Z,9.01
2022-11-12T22:38:56.993Z,9.01
2022-11-12T22:41:44.654Z,8.87
2022-11-12T22:44:32.198Z,8.75
2022-11-12T22:47:18.355Z,8.99
2022-11-12T22:50:07.620Z,8.83
2022-11-12T22:52:56.537Z,8.76
2022-11-12T22:55:44.347Z,8.69
2022-11-12T22:58:33.378Z,8.55
2022-11-12T23:01:32.717Z,8.50
2022-11-12T23:04:20.029Z,8.50
2022-11-12T23:07:07.724Z,8.72
2022-11-12T23:09:55.718Z,8.59
2022-11-12T23:12:43.672Z,8.79
2022-11-12T23:15:31.326Z,8.83
2022-11-12T23:18:18.284Z,8.66
2022-11-12T23:21:11.285Z,8.77
2022-11-12T23:23:59.896Z,8.88
2022-11-12T23:26:47.299Z,8.58
2022-11-12T23:29:34.987Z,8.73
2022-11-12T23:32:22.472Z,8.66
2022-11-12T23:35:11.318Z,8.66
2022-11-12T23:37:58.654Z,8.78
2022-11-12T23:40:57.070Z,8.77
2022-11-12T23:43:45.406Z,9.04
2022-11-12T23:46:33.191Z,8.95
2022-11-12T23:49:20.758Z,8.86
2022-11-12T23:52:09.573Z,8.98
2022-11-12T23:54:57.051Z,8.89
2022-11-12T23:57:44.998Z,9.06
